»·PEaware :: N502ET CYQR-CYVR

N502ET :: CYQR-CYVR

FLIGHT INFORMATION

Flight Status: Arrived
Operator: Privately registered:
United States
More flights under this callsign
Pilot: Lester F. (25731)
Aircraft: EMBRAER PHENOM 300
(E55P)
More flights by this aircraft type
Origin: CYQR Regina
Canada
Destination: CYVR Vancouver Intl
Canada
More flights between these airports :: More routes between these airports
Route: ODGOV YYN MEDAK Q888 BOOTH
File this flight plan on PilotEdge
Remarks:
Altitude:
(Current/Filed)
26,000ft
Speed:
(Current/Filed)
270kts
Departed: 30-Jul-20 06:37 PM
Arrived: 30-Jul-20 08:05 PM
Distance/Time
Traveled:
719nm/1:28
Distance/Time
To Go:
Arrived

Flight Plot

Page will automatically refresh every two minutes.

Flight plan parsing failed; only flown route is shown


Map Options




Map Legend


Flown Route
Filed Route
Departure Airport
Arrival Airport
Navaid (VOR, NDB)
Fix

Horizontal Profiles

Position Reports

Time Latitude Longitude Heading Altitude Ground
Speed
30-Jul-20 18:35 50.244365 -108.736336 265 26102ft 410kts
30-Jul-20 18:36 50.234473 -108.914383 264 26041ft 413kts
30-Jul-20 18:37 50.224215 -109.093573 264 26003ft 414kts
30-Jul-20 18:38 50.213685 -109.272427 264 25994ft 414kts
30-Jul-20 18:39 50.202892 -109.450956 264 25992ft 414kts
30-Jul-20 18:40 50.191775 -109.630143 264 25992ft 413kts
30-Jul-20 18:41 50.180449 -109.808217 264 26027ft 412kts
30-Jul-20 18:42 50.168897 -109.985448 264 26058ft 411kts
30-Jul-20 18:43 50.157047 -110.162999 263 26079ft 410kts
30-Jul-20 18:44 50.144964 -110.339843 263 26122ft 409kts
30-Jul-20 18:45 50.132655 -110.515849 263 26141ft 409kts
30-Jul-20 18:46 50.125408 -110.692967 268 26139ft 409kts
30-Jul-20 18:47 50.124568 -110.870411 269 26137ft 409kts
30-Jul-20 18:48 50.124183 -111.048271 269 26114ft 410kts
30-Jul-20 18:49 50.123248 -111.225806 269 26093ft 410kts
30-Jul-20 18:50 50.121686 -111.403615 269 26073ft 411kts
30-Jul-20 18:51 50.119770 -111.582025 268 26052ft 411kts
30-Jul-20 18:52 50.117569 -111.760046 268 26034ft 411kts
30-Jul-20 18:53 50.115092 -111.937949 268 26023ft 411kts
30-Jul-20 18:54 50.112337 -112.116160 268 26021ft 411kts
30-Jul-20 18:55 50.109318 -112.293680 268 26024ft 410kts
30-Jul-20 18:56 50.106017 -112.471852 268 26033ft 410kts
30-Jul-20 18:57 50.102451 -112.649512 268 26066ft 410kts
30-Jul-20 18:58 50.098612 -112.827352 268 26046ft 411kts
30-Jul-20 18:59 50.094503 -113.005061 267 26101ft 410kts
30-Jul-20 19:00 50.090119 -113.182882 267 26126ft 411kts
30-Jul-20 19:01 50.085450 -113.361197 267 26062ft 412kts
30-Jul-20 19:02 50.080499 -113.539771 267 26020ft 413kts
30-Jul-20 19:03 50.075276 -113.718315 267 26008ft 413kts
30-Jul-20 19:04 50.069781 -113.896690 267 26009ft 412kts
30-Jul-20 19:05 50.064009 -114.075121 267 26034ft 412kts
30-Jul-20 19:06 50.057973 -114.253229 266 26022ft 412kts
30-Jul-20 19:07 50.051652 -114.431653 266 26044ft 412kts
30-Jul-20 19:08 50.045076 -114.609536 266 26077ft 413kts
30-Jul-20 19:09 50.038191 -114.788321 266 26112ft 413kts
30-Jul-20 19:10 50.031049 -114.966622 266 26118ft 414kts
30-Jul-20 19:11 50.023604 -115.145612 266 26130ft 414kts
30-Jul-20 19:12 50.015901 -115.324148 266 26137ft 415kts
30-Jul-20 19:13 50.007901 -115.503128 265 26141ft 415kts
30-Jul-20 19:14 49.999583 -115.682937 265 26143ft 416kts
30-Jul-20 19:15 49.991016 -115.862115 265 26144ft 416kts
30-Jul-20 19:16 49.982154 -116.041615 265 26142ft 416kts
30-Jul-20 19:17 49.973020 -116.220926 265 26124ft 417kts
30-Jul-20 19:18 49.963573 -116.400878 265 26074ft 417kts
30-Jul-20 19:19 49.953872 -116.580310 265 26051ft 417kts
30-Jul-20 19:20 49.943897 -116.759607 265 26036ft 416kts
30-Jul-20 19:21 49.933656 -116.938635 264 26022ft 416kts
30-Jul-20 19:22 49.923136 -117.117654 264 25997ft 415kts
30-Jul-20 19:23 49.912378 -117.295969 264 25998ft 415kts
30-Jul-20 19:24 49.901339 -117.474336 264 25997ft 415kts
30-Jul-20 19:25 49.890073 -117.651893 264 25998ft 414kts
30-Jul-20 19:26 49.878502 -117.829903 264 25999ft 414kts
30-Jul-20 19:27 49.866662 -118.007761 264 25998ft 414kts
30-Jul-20 19:28 49.832975 -118.177158 242 26000ft 414kts
30-Jul-20 19:29 49.778112 -118.333592 241 25998ft 414kts
30-Jul-20 19:30 49.731568 -118.496450 250 25996ft 414kts
30-Jul-20 19:31 49.699817 -118.667028 256 25992ft 414kts
30-Jul-20 19:32 49.676423 -118.841318 259 25985ft 414kts
30-Jul-20 19:33 49.656762 -119.017283 260 25983ft 414kts
30-Jul-20 19:34 49.638701 -119.192736 261 25984ft 414kts
30-Jul-20 19:35 49.621116 -119.368387 261 25985ft 414kts
30-Jul-20 19:36 49.603527 -119.544575 261 25985ft 414kts
30-Jul-20 19:37 49.585893 -119.719821 261 25984ft 414kts
30-Jul-20 19:38 49.567976 -119.895668 261 25987ft 414kts
30-Jul-20 19:39 49.549832 -120.071046 260 25994ft 414kts
30-Jul-20 19:40 49.531460 -120.246172 260 26010ft 414kts
30-Jul-20 19:41 49.512820 -120.421257 260 26036ft 415kts
30-Jul-20 19:42 49.493904 -120.596467 260 26045ft 416kts
30-Jul-20 19:43 49.474740 -120.771624 261 26024ft 415kts
30-Jul-20 19:44 49.455318 -120.946163 261 26008ft 412kts
30-Jul-20 19:45 49.435854 -121.118397 261 24919ft 394kts
30-Jul-20 19:46 49.417541 -121.278282 260 23317ft 371kts
30-Jul-20 19:47 49.399723 -121.432224 260 21712ft 362kts
30-Jul-20 19:48 49.371372 -121.578278 240 20120ft 358kts
30-Jul-20 19:49 49.324704 -121.710429 246 18520ft 348kts
30-Jul-20 19:50 49.291635 -121.849578 253 16916ft 345kts
30-Jul-20 19:51 49.267336 -121.987789 256 16483ft 332kts
30-Jul-20 19:52 49.245502 -122.128435 257 16472ft 345kts
30-Jul-20 19:53 49.223952 -122.272421 257 15848ft 346kts
30-Jul-20 19:54 49.204059 -122.405746 257 14069ft 296kts
30-Jul-20 19:55 49.186785 -122.520682 257 12269ft 266kts
30-Jul-20 19:56 49.171489 -122.622008 257 10494ft 218kts
30-Jul-20 19:57 49.157635 -122.713295 256 8446ft 220kts
30-Jul-20 19:58 49.150271 -122.801802 302 6237ft 210kts
30-Jul-20 19:59 49.171566 -122.879867 283 3933ft 204kts
30-Jul-20 20:00 49.181428 -122.966413 273 2294ft 187kts
30-Jul-20 20:01 49.186871 -123.037207 280 1720ft 157kts
30-Jul-20 20:02 49.193381 -123.097579 280 917ft 120kts
30-Jul-20 20:03 49.198731 -123.145165 279 273ft 107kts
30-Jul-20 20:04 49.202164 -123.174893 280 17ft 0kts
30-Jul-20 20:06 49.201121 -123.179987 242 17ft 16kts
30-Jul-20 20:07 49.200684 -123.179773 259 17ft 4kts
30-Jul-20 20:08 49.201002 -123.183741 281 17ft 12kts
30-Jul-20 20:09 49.198199 -123.185532 190 17ft 15kts
30-Jul-20 20:10 49.193455 -123.186877 190 17ft 9kts
30-Jul-20 20:11 49.190595 -123.185660 141 17ft 13kts

Navigation Log

Ident Type
Flight plan parsing failed, navigation log unavailable